Time;durP1;ratioP1;P1;durP2;ratioP2;P2;SDS_P1;SDS_P2;PMS_P1;PMS_P2;Temp;Humidity;BMP_temperature;BMP_pressure;BME280_temperature;BME280_humidity;BME280_pressure;Samples;Min_cycle;Max_cycle;Signal;HPM_P1;HPM_P2
2021/05/28 00:00:47;;;;;;;;;2.75;2.75;;;;;24.37;34.03;101945.66;5072560;28;45476;-62
2021/05/28 00:03:12;;;;;;;;;2.50;2.50;;;;;24.34;34.63;101944.06;5072537;28;46177;-63
2021/05/28 00:05:39;;;;;;;;;3.00;3.00;;;;;24.33;34.61;101949.50;5074388;28;45736;-63
2021/05/28 00:08:05;;;;;;;;;3.25;2.50;;;;;24.33;34.61;101946.84;5074920;28;45452;-63
2021/05/28 00:10:31;;;;;;;;;3.50;2.75;;;;;24.30;34.18;101947.91;5082128;27;45524;-62
2021/05/28 00:12:58;;;;;;;;;5.00;3.25;;;;;24.30;34.56;101955.09;5096069;27;46971;-63
2021/05/28 00:15:23;;;;;;;;;3.75;2.50;;;;;24.29;34.40;101956.88;5096381;27;45728;-63
2021/05/28 00:17:49;;;;;;;;;2.50;2.50;;;;;24.27;34.17;101957.00;5096106;27;45532;-63
2021/05/28 00:20:15;;;;;;;;;3.50;2.00;;;;;24.25;34.16;101950.06;5095200;27;45468;-63
2021/05/28 00:22:43;;;;;;;;;3.00;3.00;;;;;24.24;34.30;101954.56;5096117;27;46287;-63
2021/05/28 00:25:11;;;;;;;;;2.50;2.50;;;;;24.23;34.31;101950.19;5096022;27;45478;-63
2021/05/28 00:27:38;;;;;;;;;3.00;3.00;;;;;24.22;34.18;101956.47;5096193;27;45622;-62
2021/05/28 00:30:06;;;;;;;;;3.00;3.00;;;;;24.21;34.23;101960.13;5095288;27;45450;-63
2021/05/28 00:32:33;;;;;;;;;3.75;3.75;;;;;24.21;34.82;101957.44;5095960;27;46985;-63
2021/05/28 00:34:59;;;;;;;;;3.00;3.00;;;;;24.20;34.24;101958.41;5096165;27;45465;-63
2021/05/28 00:37:25;;;;;;;;;2.00;2.00;;;;;24.17;34.29;101949.78;5095935;27;45573;-63
2021/05/28 00:39:50;;;;;;;;;3.00;3.00;;;;;24.18;34.21;101955.00;5095786;27;45491;-63
2021/05/28 00:42:16;;;;;;;;;4.75;3.25;;;;;24.17;34.34;101957.78;5094675;27;47206;-63
2021/05/28 00:44:42;;;;;;;;;2.75;2.75;;;;;24.17;34.86;101960.47;5095611;27;45514;-62
2021/05/28 00:47:09;;;;;;;;;4.00;4.00;;;;;24.15;34.56;101963.22;5092523;27;45493;-62
2021/05/28 00:49:35;;;;;;;;;3.50;3.00;;;;;24.13;34.23;101960.66;5075524;28;45731;-62
2021/05/28 00:52:01;;;;;;;;;3.00;3.00;;;;;24.12;34.92;101974.97;5093227;27;46126;-63
2021/05/28 00:54:26;;;;;;;;;4.00;4.00;;;;;24.11;34.79;101972.41;5095714;27;45502;-63
2021/05/28 00:56:52;;;;;;;;;3.00;3.00;;;;;24.10;34.38;101978.72;5095934;27;45628;-63
2021/05/28 00:59:19;;;;;;;;;4.00;4.00;;;;;24.08;34.76;101973.47;5095965;27;45687;-62
2021/05/28 01:01:47;;;;;;;;;3.00;3.00;;;;;24.08;34.53;101972.63;5095411;27;46989;-63
2021/05/28 01:04:16;;;;;;;;;3.25;3.25;;;;;24.05;34.88;101970.16;5094561;27;45714;-62
2021/05/28 01:06:41;;;;;;;;;4.25;3.75;;;;;24.02;34.35;101972.09;5095503;27;45505;-62
2021/05/28 01:09:08;;;;;;;;;4.25;4.25;;;;;24.02;34.29;101972.09;5092507;27;45505;-62
2021/05/28 01:11:36;;;;;;;;;4.00;4.00;;;;;24.00;34.33;101971.31;5095548;27;47260;-62
2021/05/28 01:14:02;;;;;;;;;3.00;3.00;;;;;23.99;34.41;101977.63;5094123;27;46246;-63
2021/05/28 01:16:28;;;;;;;;;3.00;3.00;;;;;23.98;34.84;101973.25;5095356;27;45439;-62
2021/05/28 01:18:53;;;;;;;;;4.25;3.00;;;;;23.96;34.56;101975.16;5095537;27;45762;-63
2021/05/28 01:21:20;;;;;;;;;4.00;4.00;;;;;23.95;34.56;101975.31;5095065;27;46872;-62
2021/05/28 01:23:47;;;;;;;;;4.00;4.00;;;;;23.94;34.88;101971.78;5095325;27;45356;-62
2021/05/28 01:26:12;;;;;;;;;3.25;2.75;;;;;23.92;34.51;101972.84;5094111;27;45422;-62
2021/05/28 01:28:38;;;;;;;;;4.25;4.00;;;;;23.92;35.02;101972.84;5094682;27;45549;-62
2021/05/28 01:31:04;;;;;;;;;3.00;3.00;;;;;23.89;34.66;101972.09;5095041;27;47098;-63
2021/05/28 01:33:40;;;;;;;;;3.50;3.50;;;;;23.88;34.48;101975.72;5094819;27;45731;-62
2021/05/28 01:36:06;;;;;;;;;2.25;2.25;;;;;23.87;34.81;101973.19;5094066;27;45462;-62
2021/05/28 01:38:31;;;;;;;;;3.00;3.00;;;;;23.85;35.02;101977.75;5067915;27;45926;-62
2021/05/28 01:40:57;;;;;;;;;4.00;4.00;;;;;23.84;34.86;101971.56;5077876;27;47015;-63
2021/05/28 01:43:22;;;;;;;;;4.00;3.00;;;;;23.84;34.93;101978.72;5094955;27;45726;-62
2021/05/28 01:45:48;;;;;;;;;3.75;3.00;;;;;23.81;34.63;101978.91;5094906;27;45359;-62
2021/05/28 01:48:14;;;;;;;;;4.25;4.25;;;;;23.82;34.60;101978.81;5093704;27;45798;-63
2021/05/28 01:50:45;;;;;;;;;6.00;4.00;;;;;23.81;34.58;101973.56;5094570;27;49067;-62
2021/05/28 01:53:17;;;;;;;;;3.50;3.50;;;;;23.80;34.49;101974.53;5094435;27;45943;-62
2021/05/28 01:55:44;;;;;;;;;5.00;4.00;;;;;23.80;35.03;101974.53;5094874;27;45448;-63
2021/05/28 01:58:11;;;;;;;;;3.75;3.75;;;;;23.79;34.89;101976.38;5093777;27;45516;-62
2021/05/28 02:00:39;;;;;;;;;4.25;4.25;;;;;23.77;34.81;101980.94;5094577;27;46084;-62
2021/05/28 02:03:06;;;;;;;;;3.25;3.25;;;;;23.77;34.96;101974.78;5094521;27;45773;-62
2021/05/28 02:05:32;;;;;;;;;4.00;4.00;;;;;23.76;35.15;101976.59;5094738;27;45679;-62
2021/05/28 02:07:58;;;;;;;;;4.00;3.00;;;;;23.77;35.04;101990.78;5093764;27;45473;-63
2021/05/28 02:10:24;;;;;;;;;4.75;4.25;;;;;23.75;34.68;101985.56;5094486;27;45866;-62
2021/05/28 02:12:52;;;;;;;;;3.00;3.00;;;;;23.74;35.11;101987.34;5094261;27;45673;-61
2021/05/28 02:15:17;;;;;;;;;3.75;3.75;;;;;23.73;35.00;101992.78;5094570;27;45512;-63
2021/05/28 02:17:43;;;;;;;;;5.25;4.00;;;;;23.71;34.75;101981.38;5094183;27;45656;-63
2021/05/28 02:20:09;;;;;;;;;3.50;3.50;;;;;23.70;34.76;101987.69;5093090;27;46268;-63
2021/05/28 02:22:35;;;;;;;;;4.00;4.00;;;;;23.68;34.52;101986.91;5094320;27;45630;-62
2021/05/28 02:25:03;;;;;;;;;4.00;4.00;;;;;23.67;34.69;101994.09;5094461;27;45507;-63
2021/05/28 02:27:29;;;;;;;;;2.50;2.25;;;;;23.67;35.03;101998.56;5078341;27;45545;-63
2021/05/28 02:29:55;;;;;;;;;3.25;3.00;;;;;23.65;35.14;101995.16;5055138;28;47588;-63
2021/05/28 02:32:20;;;;;;;;;4.00;4.00;;;;;23.63;34.84;101984.59;5073160;28;45542;-62
2021/05/28 02:34:46;;;;;;;;;3.00;3.00;;;;;23.63;35.01;101987.25;5073846;28;45660;-62
2021/05/28 02:37:11;;;;;;;;;3.50;2.50;;;;;23.60;34.82;101993.66;5073636;28;45583;-63
2021/05/28 02:39:37;;;;;;;;;3.25;3.25;;;;;23.60;34.71;101998.13;5073181;28;46952;-63
2021/05/28 02:42:03;;;;;;;;;4.00;3.00;;;;;23.58;34.77;101994.72;5084396;27;57187;-63
2021/05/28 02:44:28;;;;;;;;;4.75;3.50;;;;;23.56;35.25;101994.81;5094025;27;45663;-62
2021/05/28 02:47:00;;;;;;;;;4.25;3.75;;;;;23.55;34.82;101995.78;5094077;27;45885;-63
2021/05/28 02:49:25;;;;;;;;;3.00;3.00;;;;;23.54;34.70;101994.06;5093729;27;46364;-62
2021/05/28 02:51:51;;;;;;;;;4.00;4.00;;;;;23.52;34.80;101993.34;5093633;27;45570;-61
2021/05/28 02:54:17;;;;;;;;;4.00;4.00;;;;;23.47;34.74;101990.97;5092899;27;45501;-63
2021/05/28 02:56:42;;;;;;;;;3.00;3.00;;;;;23.51;34.81;101988.94;5094056;27;45280;-62
2021/05/28 02:59:08;;;;;;;;;2.00;2.00;;;;;23.49;34.79;101982.88;5093554;27;46390;-62
2021/05/28 03:01:34;;;;;;;;;3.00;3.00;;;;;23.48;35.25;101989.16;5093703;27;45691;-62
2021/05/28 03:04:00;;;;;;;;;4.00;4.00;;;;;23.46;34.95;101997.25;5092175;27;53212;-63
2021/05/28 03:06:26;;;;;;;;;4.00;3.50;;;;;23.45;34.77;102002.69;5093666;27;45442;-63
2021/05/28 03:08:52;;;;;;;;;3.50;3.50;;;;;23.45;35.27;102002.69;5093539;27;46205;-63
2021/05/28 03:11:17;;;;;;;;;3.00;3.00;;;;;23.43;35.07;101991.28;5093630;27;52640;-63
2021/05/28 03:13:43;;;;;;;;;3.00;3.00;;;;;23.44;34.89;101995.66;5079497;27;45420;-62
2021/05/28 03:16:08;;;;;;;;;3.50;3.50;;;;;23.44;35.42;101993.00;5073637;27;45438;-63
2021/05/28 03:19:21;;;;;;;;;4.50;3.50;;;;;23.43;35.28;101988.63;5093200;27;46163;-62
2021/05/28 03:21:24;;;;;;;;;3.00;3.00;;;;;23.42;35.35;101994.91;5078709;27;45724;-63
2021/05/28 03:23:53;;;;;;;;;3.75;3.75;;;;;23.40;35.04;101994.16;5093622;27;45576;-63
2021/05/28 03:26:21;;;;;;;;;3.00;3.00;;;;;23.40;35.23;101995.03;5092595;27;45977;-63
2021/05/28 03:28:46;;;;;;;;;3.50;3.25;;;;;23.40;35.22;102000.34;5093350;27;45932;-63
2021/05/28 03:31:12;;;;;;;;;3.00;3.00;;;;;23.40;35.26;101994.16;5093083;27;45796;-62
2021/05/28 03:33:38;;;;;;;;;1.00;1.00;;;;;23.37;34.86;101997.88;5093472;27;45542;-62
2021/05/28 03:36:05;;;;;;;;;2.00;2.00;;;;;23.37;34.78;101994.38;5092300;27;45403;-63
2021/05/28 03:38:31;;;;;;;;;4.75;3.50;;;;;23.34;34.67;101993.59;5092721;27;47124;-62
2021/05/28 03:40:58;;;;;;;;;3.00;3.00;;;;;23.29;34.90;101977.03;5095907;27;45591;-63
2021/05/28 03:43:23;;;;;;;;;2.00;2.00;;;;;23.33;34.79;101980.38;5097118;27;45465;-62
2021/05/28 03:45:49;;;;;;;;;5.00;4.00;;;;;23.32;34.84;101978.69;5097001;27;45683;-62
2021/05/28 03:48:14;;;;;;;;;2.75;2.75;;;;;23.28;35.22;101980.66;5082836;27;56784;-63
2021/05/28 03:50:40;;;;;;;;;4.00;4.00;;;;;23.29;34.88;101979.72;5076388;28;45763;-63
2021/05/28 03:53:05;;;;;;;;;3.50;3.50;;;;;23.26;35.35;101982.59;5076160;28;45701;-63
2021/05/28 03:55:31;;;;;;;;;4.25;3.25;;;;;23.23;35.15;101982.78;5076595;28;45574;-63
2021/05/28 03:57:57;;;;;;;;;5.00;3.00;;;;;23.25;35.28;101986.19;5075217;28;46301;-63
2021/05/28 04:00:25;;;;;;;;;5.00;5.00;;;;;23.24;34.93;101981.81;5075813;28;45430;-63
2021/05/28 04:02:51;;;;;;;;;5.00;3.50;;;;;23.23;34.94;101977.47;5076337;28;45482;-63
2021/05/28 04:05:17;;;;;;;;;3.75;3.75;;;;;23.22;35.23;101989.09;5076385;28;45886;-63
2021/05/28 04:07:43;;;;;;;;;3.50;3.50;;;;;23.20;35.17;101985.66;5075723;28;47003;-62
2021/05/28 04:10:09;;;;;;;;;4.00;4.00;;;;;23.18;35.33;101982.25;5075267;28;46313;-63
2021/05/28 04:12:36;;;;;;;;;2.00;2.00;;;;;23.17;34.87;101992.03;5080715;27;45799;-63
2021/05/28 04:15:02;;;;;;;;;2.75;2.75;;;;;23.16;35.32;101990.34;5096429;27;45707;-63
2021/05/28 04:17:28;;;;;;;;;2.00;2.00;;;;;23.15;35.29;101985.97;5096165;27;46439;-62
2021/05/28 04:19:54;;;;;;;;;3.00;3.00;;;;;23.14;35.35;101988.72;5095873;27;45420;-63
2021/05/28 04:22:20;;;;;;;;;2.75;2.75;;;;;23.13;35.35;101987.03;5095693;27;45494;-62
2021/05/28 04:24:45;;;;;;;;;4.25;3.25;;;;;23.12;34.95;101988.81;5096397;27;45397;-63
2021/05/28 04:27:12;;;;;;;;;2.75;2.75;;;;;22.94;35.48;101962.47;5095970;27;46198;-63
2021/05/28 04:29:37;;;;;;;;;2.75;2.75;;;;;23.09;35.46;101992.56;5096180;27;45761;-63
2021/05/28 04:32:04;;;;;;;;;3.00;3.00;;;;;23.08;35.42;101993.50;5078058;27;45391;-63
2021/05/28 04:34:29;;;;;;;;;2.25;2.25;;;;;23.04;35.07;101991.16;5075753;28;45421;-63
2021/05/28 04:36:54;;;;;;;;;2.50;2.50;;;;;23.06;34.96;102000.75;5074747;28;47169;-63
2021/05/28 04:39:20;;;;;;;;;4.00;3.00;;;;;23.06;35.07;101997.22;5074162;28;45568;-63
2021/05/28 04:41:46;;;;;;;;;4.00;3.00;;;;;23.06;35.07;102005.22;5074646;28;45613;-63
2021/05/28 04:44:11;;;;;;;;;4.00;2.00;;;;;23.06;34.97;102008.75;5073499;28;45860;-62
2021/05/28 04:46:37;;;;;;;;;2.00;2.00;;;;;23.04;35.47;102007.16;5074019;28;46149;-62
2021/05/28 04:49:03;;;;;;;;;3.00;2.00;;;;;23.04;35.07;102000.00;5074085;28;45479;-63
2021/05/28 04:51:28;;;;;;;;;2.50;2.25;;;;;23.04;35.42;102007.16;5073789;28;45441;-62
2021/05/28 04:53:56;;;;;;;;;3.00;3.00;;;;;23.02;35.30;102001.91;5074210;28;45441;-63
2021/05/28 04:56:23;;;;;;;;;3.50;3.50;;;;;23.02;35.25;102012.56;5073692;28;46567;-62
2021/05/28 04:58:48;;;;;;;;;3.75;3.00;;;;;23.01;35.10;102012.66;5074125;28;45592;-62
2021/05/28 05:01:14;;;;;;;;;2.75;2.75;;;;;23.01;35.38;102012.66;5074174;28;45466;-62
2021/05/28 05:03:39;;;;;;;;;4.00;3.00;;;;;23.00;34.99;102025.16;5074333;28;45795;-63
2021/05/28 05:06:05;;;;;;;;;4.00;4.00;;;;;22.99;35.39;102020.75;5072642;28;47180;-62
2021/05/28 05:08:31;;;;;;;;;3.00;3.00;;;;;22.98;35.17;102020.88;5073951;28;45673;-62
2021/05/28 05:10:58;;;;;;;;;2.50;2.50;;;;;22.97;35.06;102030.69;5073967;28;45479;-63
2021/05/28 05:13:23;;;;;;;;;3.75;3.75;;;;;22.96;35.29;102034.31;5074265;28;45758;-63
2021/05/28 05:15:49;;;;;;;;;3.50;3.00;;;;;22.95;35.38;102041.44;5080204;27;47115;-63
2021/05/28 05:18:15;;;;;;;;;3.00;3.00;;;;;22.90;35.24;102032.88;5092848;27;47626;-63
2021/05/28 05:20:40;;;;;;;;;3.50;2.50;;;;;22.93;35.12;102042.47;5084886;27;45421;-63
2021/05/28 05:23:08;;;;;;;;;3.00;3.00;;;;;22.88;35.27;102034.81;5073771;28;45625;-63
2021/05/28 05:25:33;;;;;;;;;3.25;3.25;;;;;22.90;35.36;102035.53;5073706;28;46346;-62
2021/05/28 05:27:59;;;;;;;;;4.50;4.00;;;;;22.90;35.15;102034.72;5072329;28;45780;-63
2021/05/28 05:30:25;;;;;;;;;3.75;3.75;;;;;22.88;35.42;102037.47;5076837;27;45481;-63
2021/05/28 05:32:50;;;;;;;;;3.25;3.25;;;;;22.87;35.24;102041.09;5094069;27;45511;-63
2021/05/28 05:35:16;;;;;;;;;3.50;3.00;;;;;22.87;35.05;102032.22;5093622;27;46572;-63
2021/05/28 05:37:42;;;;;;;;;2.75;2.75;;;;;22.86;35.05;102028.69;5054252;27;1129202;-63
2021/05/28 05:40:09;;;;;;;;;6.50;3.00;;;;;22.85;35.20;102031.50;5093984;27;45552;-63
2021/05/28 05:42:40;;;;;;;;;3.50;3.00;;;;;22.83;35.15;102027.09;5095130;27;45785;-62
2021/05/28 05:45:07;;;;;;;;;3.00;3.00;;;;;22.83;35.32;102035.06;5094693;27;46354;-63
2021/05/28 05:47:33;;;;;;;;;3.33;3.33;;;;;22.82;35.44;102029.88;5094611;27;45632;-62
2021/05/28 05:49:58;;;;;;;;;2.75;2.50;;;;;22.81;35.07;102033.47;5094059;27;45409;-63
2021/05/28 05:52:24;;;;;;;;;4.00;3.75;;;;;22.80;35.49;102035.28;5094656;27;45489;-62
2021/05/28 05:54:49;;;;;;;;;3.00;3.00;;;;;22.79;35.50;102032.72;5094521;27;46305;-63
2021/05/28 05:57:15;;;;;;;;;3.00;3.00;;;;;22.79;35.45;102030.06;5094696;27;45470;-62
2021/05/28 05:59:42;;;;;;;;;3.00;3.00;;;;;22.77;35.18;102032.81;5094594;27;45646;-62
2021/05/28 06:02:08;;;;;;;;;5.00;4.00;;;;;22.74;35.42;102018.84;5092894;27;45405;-63
2021/05/28 06:04:33;;;;;;;;;3.50;3.00;;;;;22.75;35.65;102029.41;5094073;27;46422;-63
2021/05/28 06:06:59;;;;;;;;;2.50;2.50;;;;;22.76;35.52;102036.44;5094444;27;45675;-62
2021/05/28 06:09:24;;;;;;;;;2.00;2.00;;;;;22.76;35.48;102038.28;5094700;27;45405;-62
2021/05/28 06:11:50;;;;;;;;;3.50;3.50;;;;;22.75;35.43;102037.41;5094550;27;45518;-62
2021/05/28 06:14:16;;;;;;;;;5.50;2.75;;;;;22.75;35.23;102032.06;5077856;27;47322;-63
2021/05/28 06:16:42;;;;;;;;;2.25;2.25;;;;;22.74;35.14;102035.69;5087736;27;45500;-62
2021/05/28 06:19:08;;;;;;;;;2.75;2.75;;;;;22.73;35.20;102034.00;5094306;27;45527;-63
2021/05/28 06:21:33;;;;;;;;;3.00;3.00;;;;;22.69;35.55;102030.66;5094517;27;45590;-63
2021/05/28 06:24:01;;;;;;;;;6.00;4.25;;;;;22.73;35.50;102039.31;5093120;27;46906;-63
2021/05/28 06:26:29;;;;;;;;;3.50;3.00;;;;;22.73;35.29;102030.47;5094056;27;45656;-63
2021/05/28 06:28:55;;;;;;;;;2.75;2.75;;;;;22.73;35.20;102030.47;5094308;27;45777;-63
2021/05/28 06:31:20;;;;;;;;;2.50;2.00;;;;;22.71;35.09;102029.72;5094266;27;45504;-62
2021/05/28 06:33:46;;;;;;;;;3.00;3.00;;;;;22.71;35.22;102032.38;5093875;27;45699;-62
2021/05/28 06:36:11;;;;;;;;;4.25;3.00;;;;;22.70;35.32;102023.53;5092619;27;45774;-63
2021/05/28 06:38:38;;;;;;;;;3.00;3.00;;;;;22.69;35.41;102024.47;5093941;27;45496;-62
2021/05/28 06:41:03;;;;;;;;;3.00;3.00;;;;;22.68;35.20;102030.78;5093960;27;45502;-63
2021/05/28 06:43:31;;;;;;;;;4.00;2.25;;;;;22.67;35.30;102029.03;5093892;27;46442;-63
2021/05/28 06:45:56;;;;;;;;;4.00;4.00;;;;;22.66;35.34;102030.00;5093120;27;45518;-63
2021/05/28 06:48:22;;;;;;;;;3.50;3.50;;;;;22.63;35.78;102025.72;5093591;27;45520;-63
2021/05/28 06:50:49;;;;;;;;;2.50;2.00;;;;;22.65;35.67;102033.63;5093841;27;45458;-63
2021/05/28 06:53:15;;;;;;;;;3.00;3.00;;;;;22.64;35.38;102029.25;5093515;27;46347;-63
2021/05/28 06:55:40;;;;;;;;;3.25;3.25;;;;;22.64;35.41;102039.91;5093889;27;45444;-63
2021/05/28 06:58:07;;;;;;;;;3.00;3.00;;;;;22.61;35.40;102018.78;5092785;27;45538;-62
2021/05/28 07:00:33;;;;;;;;;3.25;3.25;;;;;22.64;35.03;102026.59;5094014;27;45438;-63
2021/05/28 07:02:59;;;;;;;;;1.75;1.75;;;;;22.65;35.53;102028.28;5083088;27;46752;-63
2021/05/28 07:05:27;;;;;;;;;2.50;2.50;;;;;22.64;35.58;102027.41;5073189;28;45688;-62
2021/05/28 07:07:53;;;;;;;;;3.25;3.25;;;;;22.64;35.23;102032.75;5072904;28;45786;-62
2021/05/28 07:10:19;;;;;;;;;4.00;4.00;;;;;22.63;35.21;102036.38;5072630;28;45779;-62
2021/05/28 07:12:47;;;;;;;;;2.50;2.50;;;;;22.63;35.04;102044.34;5077965;27;46200;-62
2021/05/28 07:15:13;;;;;;;;;3.00;3.00;;;;;22.64;35.25;102039.91;5077164;27;45819;-62
2021/05/28 07:17:40;;;;;;;;;4.00;2.25;;;;;22.60;35.21;102039.25;5073252;28;45733;-62
2021/05/28 07:20:07;;;;;;;;;3.00;2.50;;;;;22.64;34.94;102043.41;5084276;27;45460;-61
2021/05/28 07:22:33;;;;;;;;;6.00;4.00;;;;;22.64;35.59;102038.06;5093192;27;47050;-59
2021/05/28 07:24:59;;;;;;;;;9.00;8.75;;;;;22.65;35.49;102038.94;5074693;27;45714;-60
2021/05/28 07:27:25;;;;;;;;;9.00;7.50;;;;;22.63;35.64;102031.03;5092824;27;45775;-59
2021/05/28 07:29:54;;;;;;;;;9.00;8.50;;;;;22.64;35.78;102037.25;5083734;27;45655;-59
2021/05/28 07:32:22;;;;;;;;;15.75;14.25;;;;;22.63;36.13;102033.72;5092228;27;47052;-58
2021/05/28 07:34:47;;;;;;;;;16.25;13.75;;;;;22.61;35.81;102026.78;5093033;27;45751;-59
2021/05/28 07:37:13;;;;;;;;;8.00;8.00;;;;;22.61;36.27;102032.09;5092646;27;45398;-59
2021/05/28 07:39:38;;;;;;;;;10.00;10.00;;;;;22.60;35.95;102022.41;5093312;27;45528;-58
2021/05/28 07:42:04;;;;;;;;;9.25;9.25;;;;;22.59;35.83;102012.72;5091577;27;46215;-59
2021/05/28 07:44:30;;;;;;;;;9.75;8.50;;;;;22.58;36.05;102011.00;5092903;27;45453;-59
2021/05/28 07:46:56;;;;;;;;;10.25;7.50;;;;;22.58;35.86;102009.19;5092945;27;45432;-59
2021/05/28 07:49:22;;;;;;;;;10.00;8.50;;;;;22.56;36.04;102011.09;5092800;27;45461;-59
2021/05/28 07:51:49;;;;;;;;;10.00;9.75;;;;;22.56;35.97;102008.44;5092550;27;45954;-59
2021/05/28 07:54:16;;;;;;;;;9.50;8.25;;;;;22.54;35.93;102005.88;5091883;27;45716;-58
2021/05/28 07:56:42;;;;;;;;;9.50;7.00;;;;;22.56;36.24;102005.78;5092461;27;45907;-59
2021/05/28 07:59:08;;;;;;;;;8.50;7.00;;;;;22.52;36.15;101999.78;5080345;27;45518;-59
2021/05/28 08:01:33;;;;;;;;;8.50;7.75;;;;;22.58;36.16;102011.00;5072354;28;46006;-59
2021/05/28 08:04:00;;;;;;;;;8.00;7.00;;;;;22.59;36.35;102010.88;5081858;27;45603;-60
2021/05/28 08:06:26;;;;;;;;;7.75;6.50;;;;;22.60;36.32;102014.41;5092688;27;45432;-59
2021/05/28 08:08:52;;;;;;;;;7.00;6.25;;;;;22.62;36.02;102012.50;5091614;27;45529;-59
2021/05/28 08:11:18;;;;;;;;;7.50;6.75;;;;;22.63;36.00;102011.56;5094966;27;46370;-59
2021/05/28 08:13:43;;;;;;;;;4.50;4.50;;;;;22.64;36.08;102007.94;5105698;27;45526;-59
2021/05/28 08:16:09;;;;;;;;;6.00;6.00;;;;;22.65;36.10;101999.88;5075893;27;45825;-59
2021/05/28 08:18:35;;;;;;;;;5.00;5.00;;;;;22.67;35.96;101997.09;5072313;28;45446;-59
2021/05/28 08:21:01;;;;;;;;;6.50;5.50;;;;;22.69;36.02;102001.34;5073627;27;46161;-59
2021/05/28 08:23:26;;;;;;;;;8.00;5.50;;;;;22.70;35.82;101991.56;5080446;27;45476;-59
2021/05/28 08:25:52;;;;;;;;;6.25;5.75;;;;;22.72;36.08;101999.47;5079922;27;45598;-60
2021/05/28 08:28:18;;;;;;;;;5.50;5.50;;;;;22.73;35.71;101998.50;5091663;27;45430;-59
2021/05/28 08:30:45;;;;;;;;;6.50;5.75;;;;;22.76;35.57;102001.81;5075609;28;47269;-59
2021/05/28 08:33:12;;;;;;;;;5.50;5.50;;;;;22.78;35.81;102001.72;5095497;27;45410;-59
2021/05/28 08:35:39;;;;;;;;;6.50;6.25;;;;;22.80;35.53;102002.47;5111103;27;45636;-59
2021/05/28 08:38:05;;;;;;;;;6.75;4.50;;;;;22.82;35.88;101998.75;5081750;27;45770;-59
2021/05/28 08:40:32;;;;;;;;;6.00;6.00;;;;;22.81;35.85;101993.50;5095336;27;47114;-59
2021/05/28 08:43:00;;;;;;;;;6.00;6.00;;;;;22.86;35.43;101995.91;5095586;27;45423;-59
2021/05/28 08:45:37;;;;;;;;;6.00;6.00;;;;;22.88;35.49;101991.31;5095405;27;45579;-59
2021/05/28 08:48:05;;;;;;;;;6.00;5.00;;;;;22.91;35.74;101986.63;5078880;27;45510;-59
2021/05/28 08:50:31;;;;;;;;;5.50;5.00;;;;;22.92;35.57;101979.50;5091259;27;46369;-59
2021/05/28 08:53:01;;;;;;;;;6.75;6.75;;;;;22.94;35.37;101982.91;5075112;27;45764;-59
2021/05/28 08:55:27;;;;;;;;;5.25;5.25;;;;;22.94;35.61;101977.59;5075175;28;46141;-59
2021/05/28 08:58:04;;;;;;;;;7.00;7.00;;;;;22.98;35.40;101979.09;5075049;28;45608;-59
2021/05/28 09:00:30;;;;;;;;;7.00;4.50;;;;;22.99;35.65;101982.63;5074715;28;46674;-60
2021/05/28 09:02:55;;;;;;;;;5.75;5.75;;;;;23.00;35.63;101982.53;5084737;27;45700;-59
2021/05/28 09:05:24;;;;;;;;;5.75;5.50;;;;;23.03;35.27;101973.47;5095454;27;45646;-59
2021/05/28 09:07:59;;;;;;;;;5.00;5.00;;;;;23.04;35.22;101970.69;5095410;27;45396;-59
2021/05/28 09:10:42;;;;;;;;;5.25;5.25;;;;;23.01;35.42;101967.38;5095095;27;46293;-59
2021/05/28 09:13:21;;;;;;;;;5.00;5.00;;;;;23.07;35.59;101974.97;5085438;27;45516;-59
2021/05/28 09:16:08;;;;;;;;;5.00;5.00;;;;;23.07;35.65;101973.16;5088962;27;45550;-59
2021/05/28 09:18:40;;;;;;;;;7.25;6.00;;;;;23.09;35.59;101981.06;5074070;28;45653;-59
2021/05/28 09:21:06;;;;;;;;;5.00;4.75;;;;;23.11;35.33;101972.97;5073956;28;47275;-59
2021/05/28 09:23:34;;;;;;;;;5.00;5.00;;;;;23.07;34.99;101970.50;5074495;28;45537;-59
2021/05/28 09:26:05;;;;;;;;;5.75;5.75;;;;;23.12;35.62;101970.19;5089146;27;45891;-59
2021/05/28 09:28:41;;;;;;;;;6.00;6.00;;;;;23.12;35.61;101964.84;5095038;27;45698;-59
2021/05/28 09:31:10;;;;;;;;;4.50;4.00;;;;;23.13;35.39;101966.56;5094590;27;47321;-59
2021/05/28 09:33:41;;;;;;;;;5.75;5.75;;;;;23.13;35.27;101958.59;5089951;27;45721;-59
2021/05/28 09:36:18;;;;;;;;;5.00;5.00;;;;;23.14;35.57;101964.75;5072241;28;45467;-59
2021/05/28 09:39:10;;;;;;;;;5.75;5.00;;;;;23.13;35.04;101958.59;5072244;28;45391;-59
2021/05/28 09:41:46;;;;;;;;;7.75;6.50;;;;;23.14;35.19;101959.41;5065503;28;46080;-59
2021/05/28 09:44:17;;;;;;;;;5.50;5.50;;;;;23.12;34.67;101956.84;5052733;28;45760;-59
2021/05/28 09:47:17;;;;;;;;;5.00;5.00;;;;;23.10;34.97;101953.44;5054001;28;45420;-59
2021/05/28 09:49:51;;;;;;;;;4.75;4.75;;;;;23.09;34.82;101955.25;5053848;28;45478;-59
2021/05/28 09:52:21;;;;;;;;;6.00;6.00;;;;;23.09;35.01;101951.75;5052371;28;47180;-59
2021/05/28 09:55:02;;;;;;;;;7.00;5.75;;;;;23.09;34.71;101947.25;5053751;28;45732;-59
2021/05/28 09:57:30;;;;;;;;;4.25;4.00;;;;;23.09;34.83;101949.09;5068977;27;45889;-58
2021/05/28 09:59:57;;;;;;;;;4.00;4.00;;;;;23.08;35.10;101942.06;5074849;27;45503;-59
2021/05/28 10:02:42;;;;;;;;;4.00;4.00;;;;;23.06;35.15;101936.81;5088515;27;46429;-59
2021/05/28 10:05:07;;;;;;;;;7.00;5.50;;;;;23.03;34.54;101933.50;5073792;28;45688;-59
2021/05/28 10:07:36;;;;;;;;;4.00;4.00;;;;;23.03;34.63;101945.00;5074251;28;45774;-59
2021/05/28 10:10:04;;;;;;;;;6.00;4.75;;;;;23.06;34.89;101939.47;5072913;28;45376;-59
2021/05/28 10:12:29;;;;;;;;;5.25;5.25;;;;;23.06;35.17;101936.81;5073608;28;47170;-59
2021/05/28 10:14:55;;;;;;;;;5.25;4.00;;;;;23.05;35.01;101931.59;5073593;28;45463;-59
2021/05/28 10:17:22;;;;;;;;;4.00;4.00;;;;;23.06;34.74;101930.63;5073852;28;45476;-59
2021/05/28 10:19:49;;;;;;;;;3.75;3.50;;;;;23.03;34.64;101920.19;5055572;28;45599;-59
2021/05/28 10:22:18;;;;;;;;;4.00;3.00;;;;;22.98;34.60;101909.00;5072518;28;46420;-59
2021/05/28 10:24:44;;;;;;;;;5.00;5.00;;;;;22.98;34.61;101924.97;5073651;28;45764;-59
2021/05/28 10:27:11;;;;;;;;;5.50;5.50;;;;;22.96;34.33;101928.56;5073585;28;45712;-60
2021/05/28 10:29:39;;;;;;;;;4.75;4.75;;;;;22.97;34.39;101926.78;5073738;28;45535;-59
2021/05/28 10:32:12;;;;;;;;;4.25;3.50;;;;;22.96;34.79;101927.75;5055996;28;46357;-59
2021/05/28 10:35:04;;;;;;;;;3.75;3.75;;;;;22.96;34.36;101925.06;5073670;27;45424;-59
2021/05/28 10:37:30;;;;;;;;;2.50;2.50;;;;;22.94;34.18;101930.50;5068927;27;45763;-59
2021/05/28 10:39:56;;;;;;;;;3.25;3.00;;;;;22.95;34.25;101923.38;5093466;27;45498;-60
2021/05/28 10:42:22;;;;;;;;;3.00;2.50;;;;;22.94;34.28;101918.97;5080838;27;46164;-60
2021/05/28 10:44:48;;;;;;;;;3.50;3.50;;;;;22.92;34.19;101921.75;5092936;27;45981;-58
2021/05/28 10:47:13;;;;;;;;;2.75;2.75;;;;;22.95;34.44;101931.38;5092709;27;45450;-58
2021/05/28 10:49:47;;;;;;;;;3.25;3.00;;;;;22.95;34.14;101926.03;5082228;27;45927;-59
2021/05/28 10:52:29;;;;;;;;;2.75;2.75;;;;;22.95;33.81;101931.38;5092150;27;46213;-59
2021/05/28 10:55:08;;;;;;;;;3.00;3.00;;;;;22.91;33.80;101928.03;5082930;27;45591;-59
2021/05/28 10:57:43;;;;;;;;;0.75;0.75;;;;;22.90;33.49;101931.66;5073371;28;45717;-58
2021/05/28 11:00:19;;;;;;;;;3.00;3.00;;;;;22.89;33.41;101926.41;5078688;27;45763;-59
2021/05/28 11:02:54;;;;;;;;;4.75;4.00;;;;;22.86;33.14;101924.81;5110400;27;47180;-59
2021/05/28 11:05:42;;;;;;;;;3.25;2.75;;;;;22.87;32.89;101923.00;5114027;27;46007;-59
2021/05/28 11:08:37;;;;;;;;;3.00;3.00;;;;;22.84;32.91;101924.06;5102785;27;45738;-58
2021/05/28 11:11:04;;;;;;;;;3.00;3.00;;;;;22.83;32.66;101915.22;5100389;27;45543;-59
2021/05/28 11:13:30;;;;;;;;;2.75;2.75;;;;;22.80;32.69;101910.13;5113264;27;46378;-58
2021/05/28 11:15:57;;;;;;;;;2.75;2.75;;;;;22.81;33.27;101909.16;5112936;27;45556;-60
2021/05/28 11:18:30;;;;;;;;;3.00;3.00;;;;;22.81;32.81;101908.28;5112896;27;45529;-58
2021/05/28 11:21:19;;;;;;;;;3.25;3.25;;;;;22.81;32.81;101910.94;5114006;27;45697;-59
2021/05/28 11:23:49;;;;;;;;;2.25;2.25;;;;;22.81;32.73;101910.94;5106356;27;46184;-59
2021/05/28 11:26:24;;;;;;;;;5.00;3.25;;;;;22.77;33.38;101902.31;5092005;27;45443;-58